Time;durP1;ratioP1;P1;durP2;ratioP2;P2;SDS_P1;SDS_P2;PMS_P1;PMS_P2;Temp;Humidity;BMP_temperature;BMP_pressure;BME280_temperature;BME280_humidity;BME280_pressure;Samples;Min_cycle;Max_cycle;Signal;HPM_P1;HPM_P2
2021/12/18 00:00:48;;;;;;;18.97;15.33;;;;;;;;;;4957108;29;20273;-88
2021/12/18 00:03:15;;;;;;;18.67;15.37;;;;;;;;;;4956206;29;20231;-88
2021/12/18 00:05:43;;;;;;;20.57;16.47;;;;;;;;;;4956708;29;20264;-88
2021/12/18 00:08:11;;;;;;;21.00;16.03;;;;;;;;;;4957119;29;20213;-89
2021/12/18 00:10:39;;;;;;;19.77;16.03;;;;;;;;;;4956134;29;20300;-88
2021/12/18 00:13:07;;;;;;;19.40;15.43;;;;;;;;;;4955998;29;20224;-89
2021/12/18 00:15:34;;;;;;;19.87;16.03;;;;;;;;;;4956534;29;20296;-89
2021/12/18 00:18:01;;;;;;;19.57;15.27;;;;;;;;;;4955855;29;20288;-88
2021/12/18 00:20:29;;;;;;;21.67;17.67;;;;;;;;;;4953737;29;20292;-88
2021/12/18 00:22:57;;;;;;;20.80;16.57;;;;;;;;;;4954991;29;20354;-89
2021/12/18 00:25:25;;;;;;;20.77;16.30;;;;;;;;;;4954586;28;20264;-88
2021/12/18 00:27:54;;;;;;;19.87;16.57;;;;;;;;;;4956178;29;20200;-88
2021/12/18 00:30:22;;;;;;;20.07;17.40;;;;;;;;;;4955539;29;20204;-88
2021/12/18 00:32:49;;;;;;;19.70;15.97;;;;;;;;;;4955995;29;20211;-88
2021/12/18 00:35:18;;;;;;;21.93;16.60;;;;;;;;;;4955709;29;20224;-88
2021/12/18 00:37:46;;;;;;;20.00;15.83;;;;;;;;;;4955829;29;20236;-88
2021/12/18 00:40:20;;;;;;;19.07;15.43;;;;;;;;;;4953569;28;20211;-89
2021/12/18 00:42:50;;;;;;;20.33;16.50;;;;;;;;;;4956028;28;20205;-88
2021/12/18 00:45:19;;;;;;;21.10;16.40;;;;;;;;;;4951611;29;20232;-88
2021/12/18 00:47:47;;;;;;;20.57;15.80;;;;;;;;;;4956494;29;20251;-89
2021/12/18 00:50:16;;;;;;;21.43;16.23;;;;;;;;;;4956157;29;20213;-89
2021/12/18 00:52:47;;;;;;;20.10;16.07;;;;;;;;;;4956982;29;20276;-89
2021/12/18 00:55:15;;;;;;;20.80;15.47;;;;;;;;;;4956050;28;20236;-89
2021/12/18 00:57:43;;;;;;;19.80;15.97;;;;;;;;;;4956253;29;20251;-88
2021/12/18 01:00:13;;;;;;;19.73;15.03;;;;;;;;;;4954945;29;20212;-89
2021/12/18 01:02:44;;;;;;;19.20;16.30;;;;;;;;;;4956514;29;20354;-89
2021/12/18 01:05:11;;;;;;;20.90;15.83;;;;;;;;;;4956753;28;20227;-88
2021/12/18 01:07:39;;;;;;;20.67;16.17;;;;;;;;;;4955907;29;20288;-88
2021/12/18 01:10:20;;;;;;;20.60;16.00;;;;;;;;;;4955320;29;20232;-89
2021/12/18 01:12:50;;;;;;;19.73;16.20;;;;;;;;;;4956480;28;20217;-89
2021/12/18 01:15:22;;;;;;;18.27;14.93;;;;;;;;;;4956158;29;20236;-89
2021/12/18 01:23:22;;;;;;;19.93;16.50;;;;;;;;;;4949418;29;20200;-89
2021/12/18 01:25:49;;;;;;;19.93;15.80;;;;;;;;;;4955251;29;20224;-88
2021/12/18 01:28:16;;;;;;;21.57;16.90;;;;;;;;;;4953324;29;20215;-88
2021/12/18 01:30:44;;;;;;;19.77;15.93;;;;;;;;;;4954414;29;20264;-88
2021/12/18 01:33:13;;;;;;;17.83;14.87;;;;;;;;;;4956536;29;20205;-88
2021/12/18 01:35:42;;;;;;;20.50;16.07;;;;;;;;;;4955848;29;20244;-88
2021/12/18 01:38:09;;;;;;;20.87;16.23;;;;;;;;;;4956572;28;20287;-88
2021/12/18 01:40:37;;;;;;;19.40;16.73;;;;;;;;;;4955863;29;20672;-88
2021/12/18 01:46:11;;;;;;;20.30;15.63;;;;;;;;;;4971038;28;20212;-88
2021/12/18 01:51:47;;;;;;;19.63;16.60;;;;;;;;;;4957759;28;20216;-88
2021/12/18 01:54:15;;;;;;;18.97;15.23;;;;;;;;;;4959713;29;20200;-88
2021/12/18 04:12:01;;;;;;;21.70;15.20;;;;;;;;;;4975131;26;20207;-88
2021/12/18 04:17:20;;;;;;;21.00;15.40;;;;;;;;;;4972526;28;20232;-88
2021/12/18 04:19:50;;;;;;;21.43;15.47;;;;;;;;;;4972420;28;20208;-89
2021/12/18 04:22:21;;;;;;;20.90;15.00;;;;;;;;;;4962002;28;20237;-89
2021/12/18 04:24:49;;;;;;;21.20;14.77;;;;;;;;;;4975313;28;20558;-88
2021/12/18 04:27:18;;;;;;;22.77;16.57;;;;;;;;;;4972947;28;20275;-88
2021/12/18 04:29:45;;;;;;;24.07;16.63;;;;;;;;;;4974420;28;20239;-86
2021/12/18 04:32:18;;;;;;;21.53;14.97;;;;;;;;;;4975440;28;20204;-87
2021/12/18 04:34:46;;;;;;;24.33;16.33;;;;;;;;;;4975140;28;20234;-90
2021/12/18 04:37:13;;;;;;;21.77;15.50;;;;;;;;;;4974148;28;20224;-88
2021/12/18 04:39:41;;;;;;;22.80;15.87;;;;;;;;;;4974268;28;20204;-87
2021/12/18 04:42:11;;;;;;;22.67;15.67;;;;;;;;;;4974929;28;20222;-88
2021/12/18 04:44:47;;;;;;;21.30;15.27;;;;;;;;;;4975636;28;20223;-87
2021/12/18 04:47:25;;;;;;;20.23;14.83;;;;;;;;;;4976863;28;20250;-87
2021/12/18 04:49:59;;;;;;;19.07;13.77;;;;;;;;;;4982028;28;20231;-88
2021/12/18 04:52:26;;;;;;;21.70;14.23;;;;;;;;;;4976098;28;20212;-88
2021/12/18 04:54:57;;;;;;;19.27;14.13;;;;;;;;;;4975454;28;20229;-88
2021/12/18 04:57:26;;;;;;;21.97;15.03;;;;;;;;;;4975316;28;20207;-87
2021/12/18 05:00:12;;;;;;;20.03;13.80;;;;;;;;;;4974195;28;20203;-88
2021/12/18 05:02:43;;;;;;;20.07;14.30;;;;;;;;;;4982228;28;20199;-88
2021/12/18 05:05:12;;;;;;;20.27;14.07;;;;;;;;;;4977320;28;20249;-84
2021/12/18 05:07:39;;;;;;;20.90;14.30;;;;;;;;;;4974415;28;20224;-85
2021/12/18 05:10:08;;;;;;;21.27;14.70;;;;;;;;;;4974734;28;20247;-85
2021/12/18 05:12:35;;;;;;;20.17;14.57;;;;;;;;;;4973623;28;20200;-83
2021/12/18 05:15:03;;;;;;;19.93;13.73;;;;;;;;;;4974499;28;20221;-86
2021/12/18 05:17:32;;;;;;;21.27;14.47;;;;;;;;;;4973713;28;20207;-85
2021/12/18 05:19:59;;;;;;;20.93;14.33;;;;;;;;;;4974001;28;20227;-85
2021/12/18 05:22:27;;;;;;;20.87;14.57;;;;;;;;;;4974384;28;20283;-86
2021/12/18 05:24:54;;;;;;;21.10;14.53;;;;;;;;;;4974410;28;20239;-87
2021/12/18 05:27:22;;;;;;;20.77;14.30;;;;;;;;;;4974373;28;20231;-86
2021/12/18 05:29:52;;;;;;;20.03;14.23;;;;;;;;;;4968624;28;20201;-86
2021/12/18 05:32:19;;;;;;;20.77;14.43;;;;;;;;;;4970180;28;20231;-85
2021/12/18 05:34:48;;;;;;;19.73;13.70;;;;;;;;;;4973570;28;20267;-86
2021/12/18 05:37:19;;;;;;;17.00;11.87;;;;;;;;;;4974513;28;20235;-86
2021/12/18 05:39:47;;;;;;;17.93;12.07;;;;;;;;;;4972996;28;20212;-86
2021/12/18 05:42:15;;;;;;;16.60;11.97;;;;;;;;;;4973436;28;20263;-86
2021/12/18 05:44:42;;;;;;;14.90;10.53;;;;;;;;;;4973976;28;20211;-84
2021/12/18 05:47:10;;;;;;;15.30;10.73;;;;;;;;;;4972577;28;20286;-86
2021/12/18 05:49:37;;;;;;;14.33;10.10;;;;;;;;;;4973730;28;20298;-86
2021/12/18 05:52:07;;;;;;;15.10;10.80;;;;;;;;;;4987789;28;20199;-86
2021/12/18 05:54:36;;;;;;;14.47;10.60;;;;;;;;;;4973327;28;20212;-86
2021/12/18 05:57:05;;;;;;;14.33;10.47;;;;;;;;;;4982605;28;20242;-85
2021/12/18 05:59:32;;;;;;;14.33;10.60;;;;;;;;;;4980480;28;20216;-84
2021/12/18 06:02:00;;;;;;;15.87;10.40;;;;;;;;;;4976349;28;20254;-86
2021/12/18 06:04:27;;;;;;;14.80;10.47;;;;;;;;;;4977403;28;20258;-85
2021/12/18 06:07:03;;;;;;;14.27;10.40;;;;;;;;;;4976801;28;20254;-86
2021/12/18 06:09:32;;;;;;;13.87;10.20;;;;;;;;;;4976837;28;20271;-86
2021/12/18 06:12:00;;;;;;;13.37;9.57;;;;;;;;;;4976903;28;20263;-86
2021/12/18 06:14:28;;;;;;;13.93;9.87;;;;;;;;;;4978032;28;20208;-87
2021/12/18 06:16:57;;;;;;;11.87;8.60;;;;;;;;;;4975262;28;20266;-86
2021/12/18 06:19:32;;;;;;;10.50;7.83;;;;;;;;;;4978763;28;20207;-86
2021/12/18 06:21:59;;;;;;;11.90;8.57;;;;;;;;;;4979287;28;20209;-86
2021/12/18 06:24:28;;;;;;;11.47;8.33;;;;;;;;;;4981502;28;20228;-88
2021/12/18 06:27:05;;;;;;;11.17;7.93;;;;;;;;;;4986814;28;20221;-86
2021/12/18 06:29:34;;;;;;;12.47;8.23;;;;;;;;;;4977577;28;20228;-85
2021/12/18 06:32:01;;;;;;;13.40;9.03;;;;;;;;;;4985352;28;20224;-86
2021/12/18 06:34:38;;;;;;;11.27;8.17;;;;;;;;;;4975855;28;20204;-87
2021/12/18 06:37:07;;;;;;;12.23;8.47;;;;;;;;;;4976395;28;20230;-86
2021/12/18 06:39:34;;;;;;;11.67;8.30;;;;;;;;;;4973422;28;20216;-86
2021/12/18 06:42:11;;;;;;;12.03;8.47;;;;;;;;;;4985885;28;20204;-86
2021/12/18 06:44:44;;;;;;;12.07;9.27;;;;;;;;;;4987951;28;20216;-91
2021/12/18 06:47:18;;;;;;;13.50;8.53;;;;;;;;;;4995162;28;20238;-87
2021/12/18 06:52:39;;;;;;;11.37;8.37;;;;;;;;;;4994114;28;20196;-86
2021/12/18 06:55:19;;;;;;;13.60;9.23;;;;;;;;;;4999441;28;20196;-88
2021/12/18 06:57:53;;;;;;;13.37;9.00;;;;;;;;;;4993415;28;20204;-88
2021/12/18 07:00:31;;;;;;;17.43;11.20;;;;;;;;;;4982964;28;20221;-85
2021/12/18 07:02:58;;;;;;;12.87;9.43;;;;;;;;;;4984530;28;20207;-85
2021/12/18 07:05:39;;;;;;;11.37;8.10;;;;;;;;;;4982050;28;20262;-86
2021/12/18 07:08:25;;;;;;;11.50;8.67;;;;;;;;;;4977251;28;20342;-85
2021/12/18 07:11:04;;;;;;;10.47;8.27;;;;;;;;;;4982506;28;20220;-86
2021/12/18 07:13:38;;;;;;;13.47;8.60;;;;;;;;;;4968396;28;20211;-84
2021/12/18 07:16:18;;;;;;;11.80;8.60;;;;;;;;;;5134940;23;20231;-86
2021/12/18 07:22:11;;;;;;;11.40;7.90;;;;;;;;;;5003063;28;20210;-85
2021/12/18 07:24:57;;;;;;;11.67;8.30;;;;;;;;;;4981275;28;20211;-86
2021/12/18 07:33:57;;;;;;;14.90;8.87;;;;;;;;;;4976753;28;20204;-86
2021/12/18 07:36:54;;;;;;;12.27;9.00;;;;;;;;;;4978433;28;20223;-86
2021/12/18 07:39:31;;;;;;;11.50;8.57;;;;;;;;;;4978544;28;20207;-89
2021/12/18 07:42:04;;;;;;;11.90;8.97;;;;;;;;;;4970031;28;20208;-88
2021/12/18 07:50:40;;;;;;;11.87;8.63;;;;;;;;;;4968127;28;20216;-87
2021/12/18 07:53:11;;;;;;;12.70;9.07;;;;;;;;;;4959790;28;20299;-88
2021/12/18 07:55:40;;;;;;;12.27;8.50;;;;;;;;;;4986420;23;20227;-83
2021/12/18 07:58:07;;;;;;;12.47;8.80;;;;;;;;;;4992054;28;20617;-84
2021/12/18 08:00:34;;;;;;;12.60;8.77;;;;;;;;;;5002071;28;20199;-84
2021/12/18 08:03:02;;;;;;;11.33;8.30;;;;;;;;;;4986711;28;20236;-84
2021/12/18 08:05:29;;;;;;;12.73;9.30;;;;;;;;;;4984168;28;20563;-84
2021/12/18 08:07:56;;;;;;;13.33;8.93;;;;;;;;;;4981554;28;20283;-84
2021/12/18 08:10:23;;;;;;;13.23;9.80;;;;;;;;;;4990726;28;20199;-84
2021/12/18 08:12:52;;;;;;;13.93;9.70;;;;;;;;;;4982859;28;20235;-84
2021/12/18 08:15:19;;;;;;;13.77;9.10;;;;;;;;;;5001644;28;20192;-84
2021/12/18 08:17:47;;;;;;;11.70;8.90;;;;;;;;;;4985300;28;20221;-84
2021/12/18 08:20:14;;;;;;;13.37;9.03;;;;;;;;;;4990442;28;20231;-84
2021/12/18 08:22:41;;;;;;;11.63;8.73;;;;;;;;;;4997802;28;20207;-84
2021/12/18 08:25:09;;;;;;;14.73;9.57;;;;;;;;;;4994757;28;20271;-83
2021/12/18 08:27:37;;;;;;;13.10;9.47;;;;;;;;;;5002153;28;20227;-84
2021/12/18 08:30:06;;;;;;;18.67;12.20;;;;;;;;;;4993021;28;20212;-84
2021/12/18 08:32:33;;;;;;;15.27;10.37;;;;;;;;;;4996248;28;20211;-84
2021/12/18 08:35:00;;;;;;;12.30;9.37;;;;;;;;;;4986799;28;20251;-84
2021/12/18 08:37:28;;;;;;;13.20;9.43;;;;;;;;;;4985042;28;20254;-84
2021/12/18 08:39:55;;;;;;;12.57;8.97;;;;;;;;;;4994871;28;20207;-83
2021/12/18 08:42:22;;;;;;;12.93;9.30;;;;;;;;;;5002239;28;20254;-83
2021/12/18 08:44:50;;;;;;;12.17;8.77;;;;;;;;;;5002253;28;20195;-86
2021/12/18 08:47:19;;;;;;;13.37;9.20;;;;;;;;;;4995387;28;20254;-84
2021/12/18 08:49:46;;;;;;;13.60;9.20;;;;;;;;;;4984420;28;20211;-85
2021/12/18 08:52:14;;;;;;;13.73;8.30;;;;;;;;;;4984445;28;20223;-85
2021/12/18 08:54:41;;;;;;;12.73;9.20;;;;;;;;;;4988223;28;20653;-85
2021/12/18 08:57:09;;;;;;;11.53;8.70;;;;;;;;;;4994311;28;20254;-86
2021/12/18 08:59:37;;;;;;;12.20;9.07;;;;;;;;;;4998175;28;20598;-85
2021/12/18 09:02:04;;;;;;;14.53;9.40;;;;;;;;;;5000217;28;20199;-86
2021/12/18 09:04:33;;;;;;;12.47;9.30;;;;;;;;;;4981630;28;20211;-85
2021/12/18 09:07:00;;;;;;;11.53;8.90;;;;;;;;;;4986070;28;20215;-86
2021/12/18 09:09:42;;;;;;;11.57;9.17;;;;;;;;;;4983109;28;20250;-86
2021/12/18 09:12:10;;;;;;;11.90;8.37;;;;;;;;;;4984343;28;20261;-84
2021/12/18 09:14:41;;;;;;;12.77;9.17;;;;;;;;;;4988831;28;20262;-83
2021/12/18 09:17:08;;;;;;;12.20;9.10;;;;;;;;;;4985314;28;20219;-83
2021/12/18 09:19:37;;;;;;;12.90;8.77;;;;;;;;;;4990976;28;20210;-84
2021/12/18 09:22:06;;;;;;;13.77;9.67;;;;;;;;;;4990662;28;20211;-86
2021/12/18 09:24:34;;;;;;;13.03;9.73;;;;;;;;;;4990311;28;20215;-83
2021/12/18 09:27:01;;;;;;;12.87;9.13;;;;;;;;;;4986847;28;20207;-84
2021/12/18 09:29:37;;;;;;;11.53;9.10;;;;;;;;;;4992303;28;20227;-83
2021/12/18 09:32:05;;;;;;;12.73;8.83;;;;;;;;;;4978523;28;20211;-82
2021/12/18 09:34:33;;;;;;;15.63;9.17;;;;;;;;;;4980954;28;20277;-82
2021/12/18 09:37:02;;;;;;;11.73;8.80;;;;;;;;;;4985109;28;20225;-82
2021/12/18 09:39:30;;;;;;;12.13;9.03;;;;;;;;;;4980718;28;20204;-82
2021/12/18 09:41:57;;;;;;;11.53;8.67;;;;;;;;;;4996693;28;20253;-81
2021/12/18 09:44:25;;;;;;;12.83;8.30;;;;;;;;;;4988575;28;20245;-82
2021/12/18 09:46:52;;;;;;;13.80;8.60;;;;;;;;;;4979287;28;20235;-82
2021/12/18 09:49:20;;;;;;;11.07;8.50;;;;;;;;;;4990772;28;20262;-82
2021/12/18 09:51:47;;;;;;;10.00;7.90;;;;;;;;;;4993598;28;20628;-83
2021/12/18 09:54:16;;;;;;;11.60;8.27;;;;;;;;;;4986533;28;20223;-84
2021/12/18 09:56:44;;;;;;;11.00;8.37;;;;;;;;;;4998165;28;20231;-83
2021/12/18 09:59:11;;;;;;;13.00;9.77;;;;;;;;;;4995961;28;20222;-84
2021/12/18 10:01:38;;;;;;;12.47;8.70;;;;;;;;;;4998091;28;20207;-85
2021/12/18 10:04:06;;;;;;;11.90;8.83;;;;;;;;;;4994578;28;20196;-84
2021/12/18 10:06:36;;;;;;;12.63;9.43;;;;;;;;;;4993218;28;20262;-85
2021/12/18 10:09:04;;;;;;;12.23;8.47;;;;;;;;;;4982111;28;20222;-85
2021/12/18 10:11:33;;;;;;;12.07;8.40;;;;;;;;;;4982267;28;20235;-84
2021/12/18 10:14:02;;;;;;;13.00;8.67;;;;;;;;;;4979990;28;20212;-84
2021/12/18 10:16:29;;;;;;;12.33;8.90;;;;;;;;;;4993445;28;20305;-81
2021/12/18 10:18:58;;;;;;;11.37;9.00;;;;;;;;;;4999725;28;20195;-86
2021/12/18 10:21:28;;;;;;;15.33;10.63;;;;;;;;;;4993420;28;20249;-86
2021/12/18 10:23:56;;;;;;;14.70;10.67;;;;;;;;;;4999579;28;20235;-83
2021/12/18 10:26:37;;;;;;;12.50;8.87;;;;;;;;;;4994230;28;20249;-84
2021/12/18 10:29:05;;;;;;;12.13;9.53;;;;;;;;;;4984550;28;20219;-87
2021/12/18 10:31:39;;;;;;;12.57;9.57;;;;;;;;;;4991520;28;20196;-84
2021/12/18 10:34:14;;;;;;;13.50;9.73;;;;;;;;;;4981050;28;20216;-86
2021/12/18 10:36:41;;;;;;;11.90;9.10;;;;;;;;;;4993476;28;20222;-85
2021/12/18 10:39:11;;;;;;;12.97;9.70;;;;;;;;;;4987707;28;20218;-85
2021/12/18 10:41:40;;;;;;;13.67;10.30;;;;;;;;;;4988839;28;20195;-85
2021/12/18 10:44:08;;;;;;;14.20;10.10;;;;;;;;;;4992531;28;20241;-85
2021/12/18 10:46:37;;;;;;;12.87;10.23;;;;;;;;;;4987708;28;20242;-84
2021/12/18 10:49:05;;;;;;;13.27;10.67;;;;;;;;;;4977629;28;20219;-86
2021/12/18 10:51:33;;;;;;;13.93;10.50;;;;;;;;;;4993575;28;20219;-84
2021/12/18 10:54:04;;;;;;;13.00;9.77;;;;;;;;;;4991033;28;20203;-83
2021/12/18 10:56:33;;;;;;;13.87;10.20;;;;;;;;;;4989114;28;20258;-83
2021/12/18 10:59:02;;;;;;;13.83;10.20;;;;;;;;;;4995939;28;20267;-83
2021/12/18 11:01:30;;;;;;;15.07;10.90;;;;;;;;;;4983115;28;20234;-84
2021/12/18 11:03:57;;;;;;;14.47;10.03;;;;;;;;;;4993834;28;20298;-85
2021/12/18 11:06:25;;;;;;;13.97;9.83;;;;;;;;;;4993470;28;20326;-83
2021/12/18 11:08:59;;;;;;;13.63;10.53;;;;;;;;;;4988739;28;20311;-83
2021/12/18 11:14:11;;;;;;;13.80;11.27;;;;;;;;;;4965620;28;20255;-84
2021/12/18 11:16:39;;;;;;;13.13;10.50;;;;;;;;;;5001593;28;20286;-84
2021/12/18 11:19:07;;;;;;;15.20;10.93;;;;;;;;;;4992970;28;20207;-84
2021/12/18 11:21:35;;;;;;;13.07;10.07;;;;;;;;;;4981249;28;20216;-84
2021/12/18 11:24:04;;;;;;;14.67;10.77;;;;;;;;;;4997690;28;20207;-83
2021/12/18 11:26:35;;;;;;;14.43;11.13;;;;;;;;;;5000922;28;20215;-84
2021/12/18 11:29:04;;;;;;;14.87;11.00;;;;;;;;;;4996549;28;20214;-84
2021/12/18 11:31:33;;;;;;;14.20;10.87;;;;;;;;;;4996595;28;20230;-86
2021/12/18 11:34:02;;;;;;;14.60;11.40;;;;;;;;;;4996747;28;20203;-84
2021/12/18 11:36:30;;;;;;;15.07;11.80;;;;;;;;;;4981779;28;20275;-84
2021/12/18 11:38:57;;;;;;;14.87;11.30;;;;;;;;;;4998609;28;20199;-84
2021/12/18 11:41:25;;;;;;;16.27;11.90;;;;;;;;;;4998186;28;20207;-84
2021/12/18 11:43:52;;;;;;;14.97;11.43;;;;;;;;;;5001376;28;20267;-84
2021/12/18 11:46:30;;;;;;;15.70;10.73;;;;;;;;;;4996439;28;20254;-83
2021/12/18 11:49:00;;;;;;;14.23;10.17;;;;;;;;;;5004428;28;20223;-83
2021/12/18 11:51:30;;;;;;;15.53;11.03;;;;;;;;;;5003580;28;20195;-84
2021/12/18 11:53:57;;;;;;;14.73;10.77;;;;;;;;;;5001038;28;20203;-85
2021/12/18 11:56:25;;;;;;;14.47;10.67;;;;;;;;;;5002121;28;20239;-85
2021/12/18 11:58:53;;;;;;;14.63;10.77;;;;;;;;;;5003964;28;20222;-85
2021/12/18 12:01:21;;;;;;;15.63;11.37;;;;;;;;;;4996522;28;20195;-86
2021/12/18 12:03:56;;;;;;;13.77;10.50;;;;;;;;;;4989230;28;20208;-87
2021/12/18 12:06:31;;;;;;;13.97;11.47;;;;;;;;;;4997046;28;20226;-85
2021/12/18 12:09:22;;;;;;;13.77;10.37;;;;;;;;;;4996020;28;20226;-85
2021/12/18 12:11:54;;;;;;;15.67;10.80;;;;;;;;;;4999470;28;20199;-85
2021/12/18 12:14:22;;;;;;;15.20;10.67;;;;;;;;;;5005038;28;20222;-84
2021/12/18 12:17:08;;;;;;;12.30;9.97;;;;;;;;;;4991198;28;20261;-87
2021/12/18 12:19:52;;;;;;;11.57;9.63;;;;;;;;;;4991521;28;20266;-90
2021/12/18 12:22:39;;;;;;;12.07;9.90;;;;;;;;;;4990193;28;20216;-87
2021/12/18 12:25:09;;;;;;;11.33;9.00;;;;;;;;;;4986290;28;20200;-90
2021/12/18 12:27:38;;;;;;;11.70;9.23;;;;;;;;;;4984186;28;20241;-91
2021/12/18 12:30:07;;;;;;;10.50;8.43;;;;;;;;;;4999347;28;20223;-91
2021/12/18 12:32:36;;;;;;;11.70;8.17;;;;;;;;;;4990605;28;20266;-89
2021/12/18 12:35:05;;;;;;;9.67;7.77;;;;;;;;;;4990326;28;20269;-87
2021/12/18 12:37:34;;;;;;;12.03;8.70;;;;;;;;;;4993487;28;20245;-84
2021/12/18 12:40:04;;;;;;;9.97;8.33;;;;;;;;;;4998154;28;20204;-85
2021/12/18 12:42:33;;;;;;;10.47;8.60;;;;;;;;;;4992191;28;20203;-82
2021/12/18 12:45:03;;;;;;;11.67;9.33;;;;;;;;;;4999482;28;20288;-83
2021/12/18 12:47:31;;;;;;;10.93;8.57;;;;;;;;;;4995446;28;20223;-83
2021/12/18 12:50:00;;;;;;;10.10;8.77;;;;;;;;;;4983337;28;20268;-83
2021/12/18 12:52:28;;;;;;;10.57;8.90;;;;;;;;;;4993997;28;20207;-83
2021/12/18 12:54:59;;;;;;;10.70;9.23;;;;;;;;;;4991043;28;20253;-81
2021/12/18 12:57:40;;;;;;;10.10;8.13;;;;;;;;;;4997336;28;20236;-83
2021/12/18 13:00:26;;;;;;;11.50;8.93;;;;;;;;;;4998839;28;20214;-83
2021/12/18 13:02:55;;;;;;;11.60;8.83;;;;;;;;;;4999125;28;20215;-84
2021/12/18 13:05:23;;;;;;;10.93;8.20;;;;;;;;;;4997098;28;20227;-83
2021/12/18 13:07:51;;;;;;;13.23;9.83;;;;;;;;;;4994573;28;20200;-83
2021/12/18 13:10:18;;;;;;;12.43;9.03;;;;;;;;;;4991026;28;20219;-90
2021/12/18 13:12:54;;;;;;;11.50;9.00;;;;;;;;;;4986166;28;20204;-82
2021/12/18 13:15:21;;;;;;;11.37;8.57;;;;;;;;;;4985472;28;20229;-87
2021/12/18 13:17:49;;;;;;;10.90;8.77;;;;;;;;;;4984331;28;20207;-87
2021/12/18 13:20:16;;;;;;;13.30;9.50;;;;;;;;;;4992421;28;20204;-83
2021/12/18 13:22:53;;;;;;;10.80;8.57;;;;;;;;;;4993555;28;20719;-85
2021/12/18 13:25:21;;;;;;;11.00;8.57;;;;;;;;;;4993356;28;20203;-84
2021/12/18 13:30:42;;;;;;;11.03;9.27;;;;;;;;;;5083436;27;20539;-84
2021/12/18 13:33:09;;;;;;;11.93;9.30;;;;;;;;;;5090668;28;20204;-83
2021/12/18 13:35:38;;;;;;;12.17;9.60;;;;;;;;;;5082806;28;20220;-83
2021/12/18 13:38:06;;;;;;;14.93;9.63;;;;;;;;;;5089086;28;20196;-83
2021/12/18 13:40:35;;;;;;;14.13;9.93;;;;;;;;;;5074242;28;20207;-83
2021/12/18 13:43:06;;;;;;;12.07;9.07;;;;;;;;;;5087841;28;20222;-86
2021/12/18 13:45:34;;;;;;;12.40;9.63;;;;;;;;;;5083505;28;20243;-84
2021/12/18 13:48:12;;;;;;;11.50;9.27;;;;;;;;;;5080497;28;20212;-83
2021/12/18 13:50:39;;;;;;;12.47;9.53;;;;;;;;;;5070037;28;20216;-84
2021/12/18 13:53:09;;;;;;;11.63;9.23;;;;;;;;;;5086192;28;20192;-83
2021/12/18 13:58:12;;;;;;;11.70;9.27;;;;;;;;;;4989807;28;20208;-81
2021/12/18 14:00:57;;;;;;;11.30;9.13;;;;;;;;;;4991010;28;20234;-82
2021/12/18 14:03:27;;;;;;;14.60;10.13;;;;;;;;;;4998372;28;20199;-84
2021/12/18 14:05:55;;;;;;;13.07;9.80;;;;;;;;;;4997346;28;20219;-83
2021/12/18 14:08:22;;;;;;;14.07;10.13;;;;;;;;;;4994994;28;20553;-82
2021/12/18 14:10:50;;;;;;;11.73;9.50;;;;;;;;;;4996087;28;20231;-84
2021/12/18 14:13:17;;;;;;;12.53;9.80;;;;;;;;;;4994247;28;20203;-85
2021/12/18 14:15:45;;;;;;;12.53;10.17;;;;;;;;;;4994646;28;20215;-86
2021/12/18 14:21:42;;;;;;;13.37;10.30;;;;;;;;;;4943517;28;20247;-85
2021/12/18 14:27:16;;;;;;;12.13;9.67;;;;;;;;;;4901507;29;20229;-83
2021/12/18 14:39:41;;;;;;;;;;;;;;;;;;;;;
2021/12/18 15:52:40;;;;;;;17.27;12.80;;;;;;;;;;4990594;28;20215;-87
2021/12/18 15:55:24;;;;;;;16.60;12.23;;;;;;;;;;4994447;28;20202;-84
2021/12/18 15:58:15;;;;;;;17.00;12.93;;;;;;;;;;4993550;28;20219;-86
2021/12/18 16:00:48;;;;;;;16.97;12.13;;;;;;;;;;4991112;28;20203;-87
2021/12/18 16:03:19;;;;;;;16.53;13.07;;;;;;;;;;4994393;28;20208;-86
2021/12/18 16:06:03;;;;;;;19.53;13.03;;;;;;;;;;4994913;28;20207;-87
2021/12/18 16:08:47;;;;;;;18.30;13.53;;;;;;;;;;4992567;28;20208;-86
2021/12/18 16:11:17;;;;;;;19.30;14.13;;;;;;;;;;4991002;28;20680;-87
2021/12/18 16:13:44;;;;;;;19.57;13.27;;;;;;;;;;4991579;28;20270;-86
2021/12/18 16:19:06;;;;;;;18.63;13.47;;;;;;;;;;4984215;28;20211;-85
2021/12/18 16:21:40;;;;;;;19.87;14.77;;;;;;;;;;4994442;28;20238;-87
2021/12/18 16:24:10;;;;;;;20.73;14.53;;;;;;;;;;4990607;28;20286;-86
2021/12/18 16:26:47;;;;;;;20.20;14.17;;;;;;;;;;4995165;28;20227;-88
2021/12/18 16:29:20;;;;;;;21.00;14.13;;;;;;;;;;4986785;28;20345;-86
2021/12/18 16:37:40;;;;;;;20.43;14.43;;;;;;;;;;4998796;28;20237;-87
2021/12/18 16:40:12;;;;;;;19.20;14.13;;;;;;;;;;5009066;28;20209;-85
2021/12/18 16:42:49;;;;;;;22.50;15.17;;;;;;;;;;4996951;28;20682;-86
2021/12/18 16:45:17;;;;;;;23.73;16.30;;;;;;;;;;4995240;28;20215;-86
2021/12/18 16:50:33;;;;;;;21.83;16.13;;;;;;;;;;4993041;28;20230;-86
2021/12/18 16:58:44;;;;;;;21.80;15.33;;;;;;;;;;4990805;28;20301;-83
2021/12/18 17:04:31;;;;;;;20.60;15.37;;;;;;;;;;4877010;29;20203;-84
2021/12/18 17:07:16;;;;;;;20.43;15.23;;;;;;;;;;4872217;29;20244;-85
2021/12/18 17:10:10;;;;;;;21.53;14.87;;;;;;;;;;4834105;29;20259;-84
2021/12/18 17:19:24;;;;;;;17.87;13.73;;;;;;;;;;4748197;30;20215;-87
2021/12/18 17:22:24;;;;;;;20.67;15.40;;;;;;;;;;4868182;29;20216;-87
2021/12/18 20:00:45;;;;;;;25.27;17.63;;;;;;;;;;5016474;28;20260;-90
2021/12/18 20:05:54;;;;;;;26.97;18.07;;;;;;;;;;5015548;28;20233;-90
2021/12/18 20:08:25;;;;;;;27.93;18.80;;;;;;;;;;4996167;28;20195;-89
2021/12/18 20:13:34;;;;;;;31.17;20.37;;;;;;;;;;4981609;28;20230;-91
2021/12/18 20:52:33;;;;;;;29.10;20.97;;;;;;;;;;5023327;28;20205;-93
2021/12/18 20:55:01;;;;;;;30.83;20.77;;;;;;;;;;5022286;28;20297;-90
2021/12/18 21:00:12;;;;;;;46.03;26.80;;;;;;;;;;5075079;23;20247;-94
2021/12/18 21:29:57;;;;;;;28.53;19.90;;;;;;;;;;5129478;23;20249;-91
2021/12/18 21:38:04;;;;;;;26.10;17.77;;;;;;;;;;5212752;23;20335;-89
2021/12/18 21:40:51;;;;;;;30.97;19.37;;;;;;;;;;5017634;28;20241;-91
2021/12/18 21:43:45;;;;;;;26.73;18.13;;;;;;;;;;5023998;28;20293;-90
2021/12/18 22:02:39;;;;;;;31.07;19.87;;;;;;;;;;5019956;28;20232;-90
2021/12/18 22:05:11;;;;;;;29.63;18.80;;;;;;;;;;4997855;28;20218;-89
2021/12/18 22:07:39;;;;;;;32.47;19.83;;;;;;;;;;5018483;28;20236;-90
2021/12/18 22:10:09;;;;;;;37.33;22.10;;;;;;;;;;5014058;28;20223;-90
2021/12/18 22:12:41;;;;;;;34.50;21.57;;;;;;;;;;5019514;28;20219;-91
2021/12/18 22:18:50;;;;;;;33.33;20.43;;;;;;;;;;5134021;23;20238;-93
2021/12/18 22:24:43;;;;;;;34.83;21.90;;;;;;;;;;5031726;28;20206;-90
2021/12/18 22:27:42;;;;;;;34.60;21.17;;;;;;;;;;5039925;28;20226;-93
2021/12/18 22:30:39;;;;;;;36.47;22.07;;;;;;;;;;5039893;28;20218;-94
2021/12/18 22:33:30;;;;;;;36.23;21.20;;;;;;;;;;5042587;28;20233;-93
2021/12/18 22:41:26;;;;;;;32.97;22.73;;;;;;;;;;5272889;23;20228;-92
2021/12/18 22:49:09;;;;;;;35.63;22.70;;;;;;;;;;5921958;22;20296;-91
2021/12/18 23:30:55;;;;;;;32.43;19.47;;;;;;;;;;4992640;28;20241;-93
2021/12/18 23:33:30;;;;;;;32.77;20.00;;;;;;;;;;5017679;28;20260;-92
2021/12/18 23:36:04;;;;;;;31.43;19.23;;;;;;;;;;5016371;28;20252;-93
2021/12/18 23:41:40;;;;;;;32.33;19.53;;;;;;;;;;5017915;28;20199;-91
2021/12/18 23:53:31;;;;;;;35.37;20.53;;;;;;;;;;5011529;28;20207;-90
